Arichat, Canada
Current Conditions -  °F | °C
As of 8:00 PM on Saturday 20 Dec 2014 (Local Time) from CYPD Reporting Station
Overcast Overcast  
Wind Chill: 32°   Ceiling: 2900
Heat Index: 32°   Visibility: 9mi
Dew Point: 27°   Wind: 2mph
Humidity: 80%   Direction: NA
Pressure: 30.27"   Gusts: NA
Location:  45.52°N, 61.02°W
Report Text: CYPD 210000Z AUTO VRB02KT 9SM OVC029 00/M03 A3027 RMK SLP255
Loading
Personal Weather Stations






























Interactive Weather Map New forecast layout! Learn more

10-Day Weather Forecast

Advertisements
Track Severe Weather on mobile